Algoa, Arkansas
Current Conditions -  °F | °C
As of 9:56 PM on Thursday 30 Oct 2014 (Local Time) from KM19 Reporting Station
Clear Clear  
Wind Chill: 56°   Ceiling: Unl
Heat Index: 56°   Visibility: 10mi
Dew Point: 49°   Wind: 9mph
Humidity: 77%   Direction: 240°WSW
Pressure: 30.01"   Gusts: NA
Location:  35.5678°N, 91.2073°W
Report Text: KM19 310256Z AUTO 24008KT 10SM CLR 13/09 A3001 RMK AO2 55003 T01330094 SLP162
Loading
Personal Weather Stations






























Interactive Weather Map
Tropical Storm Tracking
New forecast layout! Learn more

10-Day Weather Forecast

Advertisements
Track Severe Weather on mobile